createdAt,value
2023-01-21T00:00:59.796Z,4.90
2023-01-21T00:03:26.705Z,6.55
2023-01-21T00:05:53.650Z,6.25
2023-01-21T00:08:20.421Z,6.32
2023-01-21T00:10:47.240Z,5.72
2023-01-21T00:13:16.717Z,5.05
2023-01-21T00:15:46.616Z,4.55
2023-01-21T00:18:13.888Z,5.18
2023-01-21T00:20:51.280Z,5.35
2023-01-21T00:23:18.121Z,6.50
2023-01-21T00:25:47.594Z,6.00
2023-01-21T00:28:14.500Z,5.57
2023-01-21T00:30:41.829Z,5.22
2023-01-21T00:33:09.212Z,5.68
2023-01-21T00:35:36.062Z,5.35
2023-01-21T00:38:02.892Z,4.50
2023-01-21T00:40:29.652Z,4.97
2023-01-21T00:42:59.471Z,5.60
2023-01-21T00:45:26.299Z,5.60
2023-01-21T00:47:53.021Z,4.75
2023-01-21T00:50:19.813Z,4.30
2023-01-21T00:52:46.595Z,4.43
2023-01-21T00:55:13.779Z,6.47
2023-01-21T00:57:40.654Z,6.88
2023-01-21T01:00:11.048Z,6.40
2023-01-21T01:02:38.322Z,8.02
2023-01-21T01:05:06.059Z,8.70
2023-01-21T01:07:32.862Z,7.57
2023-01-21T01:09:59.632Z,10.27
2023-01-21T01:12:29.128Z,8.32
2023-01-21T01:14:55.894Z,7.88
2023-01-21T01:17:22.667Z,7.90
2023-01-21T01:19:49.955Z,6.75
2023-01-21T01:22:17.217Z,6.82
2023-01-21T01:24:43.981Z,7.20
2023-01-21T01:27:11.106Z,7.88
2023-01-21T01:29:37.932Z,8.82
2023-01-21T01:32:04.909Z,6.63
2023-01-21T01:34:31.719Z,7.22
2023-01-21T01:36:58.955Z,7.10
2023-01-21T01:39:25.794Z,7.70
2023-01-21T01:41:54.074Z,6.18
2023-01-21T01:44:56.354Z,7.78
2023-01-21T01:47:36.108Z,6.93
2023-01-21T01:50:06.186Z,6.93
2023-01-21T01:52:33.759Z,6.55
2023-01-21T01:55:02.547Z,6.10
2023-01-21T01:57:39.635Z,8.27
2023-01-21T02:00:08.929Z,7.82
2023-01-21T02:02:38.014Z,8.18
2023-01-21T02:05:08.447Z,7.97
2023-01-21T02:07:45.644Z,7.40
2023-01-21T02:10:15.036Z,7.93
2023-01-21T02:12:43.739Z,7.55
2023-01-21T02:15:12.241Z,8.57
2023-01-21T02:18:11.080Z,5.05
2023-01-21T02:21:03.484Z,5.70
2023-01-21T02:24:01.162Z,5.95
2023-01-21T02:26:33.677Z,9.45
2023-01-21T02:29:30.388Z,7.95
2023-01-21T02:32:18.844Z,5.95
2023-01-21T02:34:51.517Z,6.72
2023-01-21T02:37:41.099Z,6.78
2023-01-21T02:40:14.386Z,7.78
2023-01-21T02:42:55.271Z,7.00
2023-01-21T02:45:41.114Z,7.18
2023-01-21T02:48:26.138Z,7.93
2023-01-21T02:50:54.711Z,7.18
2023-01-21T02:53:33.583Z,6.70
2023-01-21T02:56:09.240Z,7.50
2023-01-21T02:58:40.077Z,7.80
2023-01-21T03:01:32.569Z,7.63
2023-01-21T03:04:36.958Z,6.55
2023-01-21T03:07:16.585Z,6.35
2023-01-21T03:09:43.544Z,5.72
2023-01-21T03:12:37.272Z,5.00
2023-01-21T03:15:27.837Z,5.38
2023-01-21T03:18:15.319Z,5.68
2023-01-21T03:20:54.997Z,5.85
2023-01-21T03:23:27.673Z,5.10
2023-01-21T03:25:57.123Z,5.40
2023-01-21T03:28:29.465Z,5.45
2023-01-21T03:31:12.548Z,4.18
2023-01-21T03:33:42.758Z,5.10
2023-01-21T03:36:47.001Z,4.82
2023-01-21T03:39:36.359Z,4.90
2023-01-21T03:42:03.581Z,4.30
2023-01-21T03:44:30.517Z,5.30
2023-01-21T03:47:07.554Z,5.82
2023-01-21T03:49:40.555Z,5.35
2023-01-21T03:52:08.797Z,5.45
2023-01-21T03:54:36.956Z,5.97
2023-01-21T03:57:03.867Z,5.10
2023-01-21T03:59:30.704Z,5.88
2023-01-21T04:01:57.609Z,6.40
2023-01-21T04:04:24.443Z,6.28
2023-01-21T04:06:51.248Z,6.78
2023-01-21T04:09:18.425Z,6.30
2023-01-21T04:11:45.229Z,5.65
2023-01-21T04:14:12.206Z,6.93
2023-01-21T04:16:39.167Z,6.60
2023-01-21T04:19:06.354Z,5.50
2023-01-21T04:21:33.256Z,5.93
2023-01-21T04:24:00.086Z,6.97
2023-01-21T04:26:26.990Z,5.38
2023-01-21T04:28:53.844Z,6.38
2023-01-21T04:31:20.659Z,5.18
2023-01-21T04:33:47.429Z,4.85
2023-01-21T04:36:14.279Z,5.45
2023-01-21T04:38:41.411Z,5.85
2023-01-21T04:41:08.157Z,6.20
2023-01-21T04:43:34.948Z,6.57
2023-01-21T04:46:02.542Z,5.22
2023-01-21T04:48:29.380Z,5.40
2023-01-21T04:50:56.263Z,5.82
2023-01-21T04:53:23.208Z,6.53
2023-01-21T04:55:52.233Z,6.00
2023-01-21T04:58:20.287Z,6.40
2023-01-21T05:00:47.501Z,6.13
2023-01-21T05:03:15.211Z,6.78
2023-01-21T05:05:42.575Z,5.70
2023-01-21T05:08:09.371Z,7.05
2023-01-21T05:10:36.572Z,5.13
2023-01-21T05:13:03.714Z,9.88
2023-01-21T05:15:30.825Z,5.70
2023-01-21T05:17:57.760Z,6.07
2023-01-21T05:20:24.750Z,7.18
2023-01-21T05:22:51.692Z,6.78
2023-01-21T05:25:18.916Z,7.82
2023-01-21T05:27:52.057Z,6.63
2023-01-21T05:30:18.918Z,7.20
2023-01-21T05:32:49.412Z,4.90
2023-01-21T05:35:19.103Z,6.78
2023-01-21T05:37:47.848Z,7.07
2023-01-21T05:40:16.531Z,12.57
2023-01-21T05:42:43.940Z,9.45
2023-01-21T05:45:11.732Z,6.85
2023-01-21T05:47:38.723Z,8.32
2023-01-21T05:50:06.247Z,6.75
2023-01-21T05:52:32.975Z,7.53
2023-01-21T05:55:02.365Z,7.05
2023-01-21T05:57:30.003Z,5.13
2023-01-21T05:59:57.496Z,6.07
2023-01-21T06:02:24.948Z,6.15
2023-01-21T06:04:52.200Z,6.78
2023-01-21T06:07:19.081Z,8.02
2023-01-21T06:09:45.845Z,10.65
2023-01-21T06:12:13.031Z,11.05
2023-01-21T06:14:39.875Z,10.77
2023-01-21T06:17:06.705Z,10.73
2023-01-21T06:19:33.977Z,10.32
2023-01-21T06:22:00.775Z,10.13
2023-01-21T06:24:28.193Z,7.35
2023-01-21T06:26:55.467Z,12.20
2023-01-21T06:29:22.651Z,12.77
2023-01-21T06:31:49.887Z,14.43
2023-01-21T06:34:17.228Z,12.85
2023-01-21T06:36:44.443Z,13.10
2023-01-21T06:39:11.557Z,13.10
2023-01-21T06:41:38.480Z,12.25
2023-01-21T06:44:05.745Z,9.35
2023-01-21T06:46:32.796Z,9.63
2023-01-21T06:49:00.493Z,10.38
2023-01-21T06:51:28.082Z,10.50
2023-01-21T06:53:55.369Z,11.15
2023-01-21T06:56:22.719Z,12.27
2023-01-21T06:58:49.505Z,14.00
2023-01-21T07:01:16.450Z,11.80
2023-01-21T07:03:44.365Z,19.05
2023-01-21T07:06:14.696Z,15.68
2023-01-21T07:08:42.131Z,14.82
2023-01-21T07:11:09.198Z,17.33
2023-01-21T07:13:36.297Z,23.58
2023-01-21T07:16:06.664Z,25.42
2023-01-21T07:18:34.227Z,19.27
2023-01-21T07:21:01.520Z,18.73
2023-01-21T07:23:30.028Z,17.95
2023-01-21T07:25:56.973Z,21.55
2023-01-21T07:28:23.910Z,31.85
2023-01-21T07:30:50.762Z,24.90
2023-01-21T07:33:17.739Z,35.40
2023-01-21T07:35:44.603Z,28.50
2023-01-21T07:38:11.362Z,30.08
2023-01-21T07:40:38.295Z,17.77
2023-01-21T07:43:05.229Z,19.77
2023-01-21T07:45:32.095Z,17.40
2023-01-21T07:47:59.275Z,18.27
2023-01-21T07:50:26.374Z,18.38
2023-01-21T07:52:54.783Z,14.85
2023-01-21T07:55:21.775Z,15.05
2023-01-21T07:57:48.611Z,12.77
2023-01-21T08:00:16.251Z,10.77
2023-01-21T08:02:43.269Z,13.90
2023-01-21T08:05:10.894Z,14.00
2023-01-21T08:07:38.207Z,12.77
2023-01-21T08:10:05.388Z,9.60
2023-01-21T08:12:32.160Z,11.10
2023-01-21T08:14:59.379Z,10.15
2023-01-21T08:17:26.917Z,12.05
2023-01-21T08:19:54.155Z,12.48
2023-01-21T08:22:20.973Z,18.48
2023-01-21T08:24:48.167Z,18.60
2023-01-21T08:27:14.975Z,25.80
2023-01-21T08:29:41.768Z,21.23
2023-01-21T08:32:09.248Z,13.40
2023-01-21T08:34:36.169Z,12.10
2023-01-21T08:37:03.353Z,11.38
2023-01-21T08:39:30.131Z,10.85
2023-01-21T08:41:56.920Z,12.25
2023-01-21T08:44:23.763Z,13.45
2023-01-21T08:46:50.929Z,14.10
2023-01-21T08:49:17.762Z,14.73
2023-01-21T08:51:44.561Z,14.13
2023-01-21T08:54:11.441Z,12.48
2023-01-21T08:56:38.657Z,11.02
2023-01-21T08:59:05.916Z,9.20
2023-01-21T09:01:33.622Z,13.73
2023-01-21T09:04:01.785Z,10.77
2023-01-21T09:06:29.871Z,10.77
2023-01-21T09:08:58.141Z,11.15
2023-01-21T09:11:26.320Z,9.13
2023-01-21T09:13:53.148Z,9.50
2023-01-21T09:16:22.176Z,10.30
2023-01-21T09:18:49.429Z,8.80
2023-01-21T09:21:16.930Z,11.85
2023-01-21T09:23:44.404Z,10.23
2023-01-21T09:26:18.543Z,13.30
2023-01-21T09:28:47.909Z,13.35
2023-01-21T09:31:17.244Z,12.02
2023-01-21T09:33:50.357Z,12.98
2023-01-21T09:36:23.407Z,12.57
2023-01-21T09:38:51.117Z,13.93
2023-01-21T09:41:27.121Z,12.30
2023-01-21T09:44:03.128Z,12.25
2023-01-21T09:46:33.783Z,17.73
2023-01-21T09:49:03.852Z,12.57
2023-01-21T09:51:58.320Z,13.52
2023-01-21T09:54:31.633Z,16.58
2023-01-21T09:57:24.390Z,13.80
2023-01-21T10:00:08.038Z,13.25
2023-01-21T10:03:03.125Z,14.63
2023-01-21T10:06:12.511Z,14.05
2023-01-21T10:08:48.072Z,14.70
2023-01-21T10:11:24.150Z,15.15
2023-01-21T10:14:29.389Z,13.75
2023-01-21T10:17:16.810Z,13.68
2023-01-21T10:20:14.199Z,13.25
2023-01-21T10:22:51.253Z,17.20
2023-01-21T10:25:33.029Z,18.92
2023-01-21T10:28:05.607Z,16.55
2023-01-21T10:30:39.064Z,20.45
2023-01-21T10:33:31.104Z,16.27
2023-01-21T10:36:13.477Z,13.38
2023-01-21T10:39:03.511Z,12.30
2023-01-21T10:41:54.194Z,12.95
2023-01-21T10:44:52.316Z,16.25
2023-01-21T10:47:47.254Z,14.88
2023-01-21T10:50:44.889Z,17.00
2023-01-21T10:53:26.716Z,16.30
2023-01-21T10:56:18.899Z,13.30
2023-01-21T10:58:57.465Z,15.23
2023-01-21T11:01:29.718Z,16.42
2023-01-21T11:04:16.540Z,15.77
2023-01-21T11:06:46.801Z,16.25
2023-01-21T11:09:15.470Z,14.77
2023-01-21T11:11:42.976Z,14.02
2023-01-21T11:14:10.562Z,13.77
2023-01-21T11:16:45.613Z,12.82
2023-01-21T11:19:21.577Z,16.23
2023-01-21T11:22:06.914Z,17.98
2023-01-21T11:24:43.971Z,15.57
2023-01-21T11:27:32.423Z,16.52
2023-01-21T11:30:02.484Z,13.70
2023-01-21T11:32:31.348Z,11.05
2023-01-21T11:35:11.084Z,11.77
2023-01-21T11:37:38.547Z,14.50
2023-01-21T11:40:22.211Z,14.15
2023-01-21T11:42:51.637Z,12.38
2023-01-21T11:45:33.323Z,13.80
2023-01-21T11:48:01.055Z,12.63
2023-01-21T11:50:42.695Z,14.48
2023-01-21T11:53:17.715Z,11.85
2023-01-21T11:55:51.678Z,11.90
2023-01-21T11:58:20.159Z,13.25
2023-01-21T12:00:50.747Z,14.02
2023-01-21T12:03:46.334Z,10.50
2023-01-21T12:06:33.253Z,12.32
2023-01-21T12:09:04.701Z,12.45
2023-01-21T12:11:32.779Z,12.10
2023-01-21T12:14:08.969Z,14.45
2023-01-21T12:16:40.331Z,12.90
2023-01-21T12:19:07.723Z,12.60
2023-01-21T12:21:52.437Z,13.63
2023-01-21T12:24:22.398Z,14.20
2023-01-21T12:26:59.815Z,14.68
2023-01-21T12:29:46.933Z,13.95
2023-01-21T12:32:20.632Z,11.48
2023-01-21T12:35:02.445Z,13.38
2023-01-21T12:37:42.869Z,15.70
2023-01-21T12:40:15.228Z,20.38
2023-01-21T12:42:47.607Z,22.40
2023-01-21T12:45:19.539Z,18.83
2023-01-21T12:47:56.749Z,19.92
2023-01-21T12:50:42.028Z,14.98
2023-01-21T12:53:16.220Z,12.48
2023-01-21T12:56:23.155Z,13.20
2023-01-21T12:59:08.104Z,14.43
2023-01-21T13:01:53.259Z,17.98
2023-01-21T13:04:58.024Z,15.15
2023-01-21T13:07:50.943Z,14.50
2023-01-21T13:10:24.821Z,14.23
2023-01-21T13:13:19.698Z,13.10
2023-01-21T13:15:57.556Z,13.23
2023-01-21T13:18:39.783Z,15.68
2023-01-21T13:21:23.020Z,11.57
2023-01-21T13:23:59.676Z,14.05
2023-01-21T13:26:54.363Z,14.55
2023-01-21T13:29:46.374Z,12.25
2023-01-21T13:32:25.930Z,12.65
2023-01-21T13:35:30.907Z,12.80
2023-01-21T13:38:23.750Z,13.75
2023-01-21T13:40:50.938Z,13.98
2023-01-21T13:43:36.012Z,10.82
2023-01-21T13:46:19.559Z,16.20
2023-01-21T13:49:28.502Z,13.68
2023-01-21T13:52:23.869Z,14.30
2023-01-21T13:55:18.091Z,14.52
2023-01-21T13:57:52.597Z,11.90
2023-01-21T14:00:30.871Z,14.23
2023-01-21T14:03:06.627Z,17.13
2023-01-21T14:05:45.723Z,12.30
2023-01-21T14:08:30.216Z,11.60
2023-01-21T14:11:10.143Z,12.32
2023-01-21T14:13:58.779Z,10.07
2023-01-21T14:16:57.820Z,10.90
2023-01-21T14:19:42.174Z,18.42
2023-01-21T14:22:32.469Z,12.77
2023-01-21T14:25:13.594Z,12.30
2023-01-21T14:27:57.367Z,14.70
2023-01-21T14:31:02.424Z,12.27
2023-01-21T14:34:06.359Z,10.40
2023-01-21T14:36:52.361Z,14.15
2023-01-21T14:39:19.222Z,16.20
2023-01-21T14:42:05.007Z,8.38
2023-01-21T14:44:53.838Z,11.90
2023-01-21T14:47:23.149Z,9.25
2023-01-21T14:49:54.042Z,12.35
2023-01-21T14:52:33.416Z,10.68
2023-01-21T14:55:03.282Z,12.30
2023-01-21T14:57:33.401Z,11.05
2023-01-21T15:00:17.448Z,10.45
2023-01-21T15:02:48.241Z,12.20
2023-01-21T15:05:25.346Z,14.75
2023-01-21T15:08:07.547Z,10.80
2023-01-21T15:10:37.652Z,10.07
2023-01-21T15:13:26.187Z,8.60
2023-01-21T15:16:36.121Z,10.95
2023-01-21T15:19:12.618Z,11.77
2023-01-21T15:21:42.371Z,15.57
2023-01-21T15:24:22.987Z,13.02
2023-01-21T15:27:21.129Z,11.45
2023-01-21T15:29:57.690Z,12.23
2023-01-21T15:32:30.426Z,12.20
2023-01-21T15:35:13.958Z,12.90
2023-01-21T15:37:44.878Z,19.52
2023-01-21T15:40:18.484Z,15.52
2023-01-21T15:43:35.322Z,14.70
2023-01-21T15:46:23.976Z,13.23
2023-01-21T15:49:10.868Z,14.93
2023-01-21T15:51:43.578Z,13.43
2023-01-21T15:54:53.064Z,13.57
2023-01-21T15:57:31.715Z,13.98
2023-01-21T16:00:17.553Z,13.00
2023-01-21T16:03:07.600Z,14.25
2023-01-21T16:05:50.437Z,19.50
2023-01-21T16:08:38.541Z,16.17
2023-01-21T16:11:30.167Z,11.40
2023-01-21T16:14:34.870Z,14.00
2023-01-21T16:17:19.631Z,15.57
2023-01-21T16:19:51.825Z,14.38
2023-01-21T16:22:30.731Z,14.40
2023-01-21T16:25:02.602Z,14.13
2023-01-21T16:27:31.746Z,14.63
2023-01-21T16:30:26.832Z,14.27
2023-01-21T16:33:20.662Z,13.20
2023-01-21T16:36:00.725Z,13.50
2023-01-21T16:38:29.529Z,17.33
2023-01-21T16:41:23.927Z,14.48
2023-01-21T16:43:58.563Z,15.75
2023-01-21T16:46:27.428Z,15.68
2023-01-21T16:48:58.109Z,19.45
2023-01-21T16:51:32.778Z,21.10
2023-01-21T16:54:18.129Z,20.58
2023-01-21T16:56:55.803Z,16.65
2023-01-21T16:59:44.829Z,16.48
2023-01-21T17:02:31.758Z,13.23
2023-01-21T17:05:05.120Z,20.38
2023-01-21T17:07:43.569Z,26.45
2023-01-21T17:10:21.924Z,17.30
2023-01-21T17:13:01.644Z,23.33
2023-01-21T17:15:38.906Z,32.80
2023-01-21T17:18:21.164Z,24.08
2023-01-21T17:20:54.878Z,18.02
2023-01-21T17:23:28.391Z,19.77
2023-01-21T17:26:03.746Z,19.10
2023-01-21T17:28:40.563Z,20.95
2023-01-21T17:31:22.535Z,19.17
2023-01-21T17:34:05.407Z,16.42
2023-01-21T17:36:37.467Z,17.65
2023-01-21T17:39:14.535Z,17.35
2023-01-21T17:41:44.312Z,15.27
2023-01-21T17:44:26.448Z,14.55
2023-01-21T17:46:54.823Z,13.98
2023-01-21T17:49:24.096Z,14.00
2023-01-21T17:51:57.371Z,16.15
2023-01-21T17:54:29.485Z,16.23
2023-01-21T17:56:58.433Z,17.17
2023-01-21T17:59:38.905Z,14.40
2023-01-21T18:02:13.831Z,14.10
2023-01-21T18:04:41.765Z,15.13
2023-01-21T18:07:23.548Z,13.48
2023-01-21T18:09:52.264Z,17.10
2023-01-21T18:12:19.644Z,15.55
2023-01-21T18:14:47.476Z,14.00
2023-01-21T18:17:23.885Z,16.73
2023-01-21T18:19:51.119Z,12.88
2023-01-21T18:22:24.695Z,18.48
2023-01-21T18:24:51.608Z,16.70
2023-01-21T18:27:20.512Z,17.75
2023-01-21T18:29:48.015Z,16.00
2023-01-21T18:32:15.947Z,17.10
2023-01-21T18:34:42.770Z,17.70
2023-01-21T18:37:14.811Z,19.73
2023-01-21T18:39:41.896Z,17.10
2023-01-21T18:42:16.851Z,20.30
2023-01-21T18:44:44.542Z,16.45
2023-01-21T18:47:13.710Z,18.65
2023-01-21T18:49:41.038Z,23.33
2023-01-21T18:52:11.110Z,22.75
2023-01-21T18:54:38.345Z,23.30
2023-01-21T18:57:10.964Z,23.23
2023-01-21T18:59:37.928Z,23.90
2023-01-21T19:02:18.120Z,20.88
2023-01-21T19:04:46.726Z,21.13
2023-01-21T19:07:21.200Z,21.73
2023-01-21T19:09:50.782Z,20.77
2023-01-21T19:12:21.437Z,18.13
2023-01-21T19:14:48.922Z,19.42
2023-01-21T19:17:26.064Z,15.77
2023-01-21T19:19:54.231Z,21.63
2023-01-21T19:22:24.158Z,17.02
2023-01-21T19:24:51.463Z,23.05
2023-01-21T19:27:30.405Z,18.70
2023-01-21T19:30:00.737Z,21.55
2023-01-21T19:32:30.270Z,20.80
2023-01-21T19:34:57.841Z,18.20
2023-01-21T19:37:25.187Z,23.63
2023-01-21T19:39:52.127Z,23.92
2023-01-21T19:42:18.981Z,20.05
2023-01-21T19:44:45.767Z,17.77
2023-01-21T19:47:29.850Z,15.90
2023-01-21T19:49:56.998Z,18.23
2023-01-21T19:52:23.866Z,17.70
2023-01-21T19:54:51.055Z,17.95
2023-01-21T19:57:18.500Z,16.27
2023-01-21T19:59:48.007Z,16.00
2023-01-21T20:02:14.842Z,18.20
2023-01-21T20:04:44.606Z,15.82
2023-01-21T20:07:16.055Z,15.98
2023-01-21T20:09:42.887Z,17.08
2023-01-21T20:12:12.854Z,14.35
2023-01-21T20:14:39.745Z,14.90
2023-01-21T20:17:10.888Z,12.68
2023-01-21T20:19:38.208Z,11.93
2023-01-21T20:22:05.072Z,11.43
2023-01-21T20:24:34.152Z,10.57
2023-01-21T20:27:03.178Z,11.48
2023-01-21T20:29:29.978Z,12.02
2023-01-21T20:31:58.395Z,8.65
2023-01-21T20:34:25.326Z,8.00
2023-01-21T20:36:52.404Z,14.32
2023-01-21T20:39:19.559Z,13.00
2023-01-21T20:41:46.500Z,11.90
2023-01-21T20:44:13.347Z,14.52
2023-01-21T20:46:40.181Z,10.07
2023-01-21T20:49:11.263Z,10.68
2023-01-21T20:51:38.110Z,8.48
2023-01-21T20:54:21.887Z,8.15
2023-01-21T20:56:49.380Z,7.57
2023-01-21T20:59:45.121Z,10.23
2023-01-21T21:02:12.514Z,16.55
2023-01-21T21:04:46.318Z,10.23
2023-01-21T21:07:16.291Z,7.82
2023-01-21T21:09:44.014Z,7.22
2023-01-21T21:12:11.233Z,6.70
2023-01-21T21:14:49.566Z,6.95
2023-01-21T21:17:17.187Z,10.25
2023-01-21T21:19:54.042Z,8.35
2023-01-21T21:22:21.216Z,9.32
2023-01-21T21:24:48.065Z,11.25
2023-01-21T21:30:06.641Z,8.88
2023-01-21T21:32:33.671Z,15.18
2023-01-21T21:35:13.462Z,11.57
2023-01-21T21:37:40.886Z,13.45
2023-01-21T21:40:11.768Z,13.32
2023-01-21T21:48:16.360Z,14.27
2023-01-21T21:50:43.298Z,12.55
2023-01-21T21:53:10.897Z,18.05
2023-01-21T21:55:38.333Z,17.50
2023-01-21T21:58:05.749Z,15.52
2023-01-21T22:03:10.570Z,20.05
2023-01-21T22:05:44.328Z,18.15
2023-01-21T22:08:16.370Z,20.42
2023-01-21T22:13:48.377Z,19.80
2023-01-21T22:16:20.097Z,23.15
2023-01-21T22:18:47.443Z,23.83
2023-01-21T22:46:52.725Z,15.50
2023-01-21T22:52:09.048Z,15.63
2023-01-21T22:54:35.891Z,14.25
2023-01-21T22:57:03.251Z,15.95
2023-01-21T23:20:44.747Z,12.48
2023-01-21T23:23:12.428Z,13.73
2023-01-21T23:25:44.381Z,13.98
2023-01-21T23:28:12.784Z,16.85
2023-01-21T23:30:46.283Z,18.05
2023-01-21T23:33:13.566Z,14.45
2023-01-21T23:35:40.939Z,11.23
2023-01-21T23:46:20.047Z,12.27
2023-01-21T23:48:47.511Z,11.38
2023-01-21T23:51:16.124Z,12.90
2023-01-21T23:53:43.536Z,12.77
2023-01-21T23:56:16.636Z,9.85
2023-01-21T23:58:44.294Z,11.82
